BAW59W LKPR-LOWW
Flight info
| Callsign | BAW59W |
|---|---|
| Flight time | 0h 33m |
| Altitude | 17000 |
| Route | VOZ4E VOZ DCT LANUX LANUX7W |
| Aircraft | B77W/H-SDE1E3FGHIJ3J4J5J6M1M2P2RWXYZ/LB1D1 |
Departure
| Time | 2026-05-05 08:32 |
|---|---|
| Airport | Václav Havel Airport Prague (LKPR) |
Arrival
| Time | 2026-05-05 09:06 |
|---|---|
| Airport | Vienna International Airport (LOWW) |
| Time | Latitude | Longitude | Altitude | Speed | Heading |
|---|---|---|---|---|---|
| 2026-05-05 08:08 | 50.10851 | 14.26461 | 1207 ft | 0 kts | 34° |
| 2026-05-05 08:21 | 50.10846 | 14.26455 | 1175 ft | 2 kts | 34° |
| 2026-05-05 08:21 | 50.10832 | 14.26441 | 1174 ft | 2 kts | 34° |
| 2026-05-05 08:22 | 50.10819 | 14.26427 | 1175 ft | 2 kts | 34° |
| 2026-05-05 08:22 | 50.10805 | 14.26413 | 1175 ft | 2 kts | 34° |
| 2026-05-05 08:22 | 50.10791 | 14.26401 | 1175 ft | 2 kts | 18° |
| 2026-05-05 08:22 | 50.10775 | 14.26395 | 1174 ft | 2 kts | 2° |
| 2026-05-05 08:23 | 50.10759 | 14.26396 | 1182 ft | 2 kts | 340° |
| 2026-05-05 08:23 | 50.10746 | 14.26410 | 1178 ft | 0 kts | 306° |
| 2026-05-05 08:25 | 50.10752 | 14.26403 | 1182 ft | 2 kts | 321° |
| 2026-05-05 08:26 | 50.10781 | 14.26377 | 1176 ft | 7 kts | 324° |
| 2026-05-05 08:26 | 50.10812 | 14.26298 | 1175 ft | 10 kts | 270° |
| 2026-05-05 08:26 | 50.10769 | 14.26218 | 1178 ft | 10 kts | 216° |
| 2026-05-05 08:26 | 50.10713 | 14.26156 | 1178 ft | 10 kts | 214° |
| 2026-05-05 08:27 | 50.10655 | 14.26097 | 1178 ft | 10 kts | 213° |
| 2026-05-05 08:27 | 50.10598 | 14.26038 | 1189 ft | 10 kts | 213° |
| 2026-05-05 08:27 | 50.10540 | 14.25983 | 1192 ft | 9 kts | 201° |
| 2026-05-05 08:27 | 50.10482 | 14.26017 | 1194 ft | 9 kts | 135° |
| 2026-05-05 08:28 | 50.10440 | 14.26104 | 1195 ft | 13 kts | 126° |
| 2026-05-05 08:28 | 50.10355 | 14.26281 | 1198 ft | 26 kts | 127° |
| 2026-05-05 08:28 | 50.10247 | 14.26504 | 1202 ft | 26 kts | 127° |
| 2026-05-05 08:28 | 50.10137 | 14.26731 | 1209 ft | 26 kts | 127° |
| 2026-05-05 08:29 | 50.10027 | 14.26957 | 1214 ft | 26 kts | 127° |
| 2026-05-05 08:29 | 50.09918 | 14.27185 | 1216 ft | 26 kts | 126° |
| 2026-05-05 08:29 | 50.09799 | 14.27398 | 1218 ft | 26 kts | 135° |
| 2026-05-05 08:30 | 50.09540 | 14.27796 | 1231 ft | 26 kts | 135° |
| 2026-05-05 08:30 | 50.09409 | 14.27994 | 1252 ft | 26 kts | 135° |
| 2026-05-05 08:30 | 50.09301 | 14.28162 | 1250 ft | 15 kts | 135° |
| 2026-05-05 08:30 | 50.09231 | 14.28262 | 1255 ft | 12 kts | 145° |
| 2026-05-05 08:31 | 50.09152 | 14.28264 | 1257 ft | 12 kts | 208° |
| 2026-05-05 08:31 | 50.09093 | 14.28187 | 1252 ft | 10 kts | 221° |
| 2026-05-05 08:31 | 50.09083 | 14.28090 | 1254 ft | 11 kts | 301° |
| 2026-05-05 08:31 | 50.09195 | 14.27857 | 1257 ft | 60 kts | 307° |
| 2026-05-05 08:32 | 50.09639 | 14.26943 | 1217 ft | 149 kts | 307° |
| 2026-05-05 08:32 | 50.10339 | 14.25443 | 1583 ft | 180 kts | 310° |
| 2026-05-05 08:32 | 50.11036 | 14.23768 | 2450 ft | 190 kts | 292° |
| 2026-05-05 08:32 | 50.11102 | 14.21612 | 3036 ft | 216 kts | 251° |
| 2026-05-05 08:33 | 50.10164 | 14.19653 | 3414 ft | 242 kts | 210° |
| 2026-05-05 08:33 | 50.08526 | 14.18957 | 4065 ft | 255 kts | 174° |
| 2026-05-05 08:33 | 50.06784 | 14.19533 | 4992 ft | 261 kts | 163° |
| 2026-05-05 08:33 | 50.05016 | 14.20321 | 6020 ft | 266 kts | 165° |
| 2026-05-05 08:34 | 50.03208 | 14.21071 | 7075 ft | 270 kts | 166° |
| 2026-05-05 08:34 | 50.01376 | 14.21796 | 8198 ft | 272 kts | 167° |
| 2026-05-05 08:34 | 49.99512 | 14.22619 | 9001 ft | 289 kts | 164° |
| 2026-05-05 08:34 | 49.97479 | 14.23556 | 9312 ft | 321 kts | 166° |
| 2026-05-05 08:35 | 49.95225 | 14.24456 | 9852 ft | 342 kts | 168° |
| 2026-05-05 08:35 | 49.92875 | 14.25251 | 10777 ft | 349 kts | 169° |
| 2026-05-05 08:35 | 49.90478 | 14.25996 | 11823 ft | 353 kts | 170° |
| 2026-05-05 08:35 | 49.88095 | 14.27017 | 12685 ft | 361 kts | 158° |
| 2026-05-05 08:36 | 49.85943 | 14.29105 | 13698 ft | 371 kts | 141° |
| 2026-05-05 08:36 | 49.84171 | 14.32001 | 14717 ft | 370 kts | 132° |
| 2026-05-05 08:36 | 49.82522 | 14.35017 | 15747 ft | 371 kts | 132° |
| 2026-05-05 08:36 | 49.80839 | 14.38087 | 16598 ft | 375 kts | 132° |
| 2026-05-05 08:37 | 49.79145 | 14.41170 | 16881 ft | 377 kts | 133° |
| 2026-05-05 08:37 | 49.77444 | 14.44247 | 16864 ft | 375 kts | 133° |
| 2026-05-05 08:37 | 49.75750 | 14.47302 | 16860 ft | 372 kts | 133° |
| 2026-05-05 08:37 | 49.74071 | 14.50330 | 16864 ft | 370 kts | 133° |
| 2026-05-05 08:38 | 49.72396 | 14.53339 | 16860 ft | 369 kts | 133° |
| 2026-05-05 08:38 | 49.70717 | 14.56343 | 16862 ft | 369 kts | 133° |
| 2026-05-05 08:38 | 49.69038 | 14.59343 | 16862 ft | 369 kts | 133° |
| 2026-05-05 08:38 | 49.67362 | 14.62336 | 16854 ft | 368 kts | 133° |
| 2026-05-05 08:39 | 49.65683 | 14.65331 | 16857 ft | 368 kts | 133° |
| 2026-05-05 08:39 | 49.64008 | 14.68319 | 16855 ft | 368 kts | 133° |
| 2026-05-05 08:39 | 49.62330 | 14.71308 | 16864 ft | 368 kts | 133° |
| 2026-05-05 08:39 | 49.60669 | 14.74260 | 16859 ft | 369 kts | 133° |
| 2026-05-05 08:40 | 49.58985 | 14.77248 | 16865 ft | 370 kts | 133° |
| 2026-05-05 08:40 | 49.57298 | 14.80240 | 16863 ft | 370 kts | 133° |
| 2026-05-05 08:40 | 49.55609 | 14.83237 | 16856 ft | 370 kts | 133° |
| 2026-05-05 08:40 | 49.53908 | 14.86210 | 16854 ft | 370 kts | 135° |
| 2026-05-05 08:41 | 49.52044 | 14.88927 | 16850 ft | 368 kts | 143° |
| 2026-05-05 08:41 | 49.50025 | 14.91330 | 16853 ft | 367 kts | 145° |
| 2026-05-05 08:41 | 49.47981 | 14.93694 | 16851 ft | 367 kts | 145° |
| 2026-05-05 08:41 | 49.45935 | 14.96044 | 16847 ft | 367 kts | 145° |
| 2026-05-05 08:42 | 49.43892 | 14.98399 | 16856 ft | 368 kts | 145° |
| 2026-05-05 08:42 | 49.41844 | 15.00759 | 16848 ft | 367 kts | 145° |
| 2026-05-05 08:42 | 49.40490 | 15.02325 | 16856 ft | 367 kts | 145° |
| 2026-05-05 08:42 | 49.38450 | 15.04685 | 16855 ft | 367 kts | 145° |
| 2026-05-05 08:43 | 49.36411 | 15.07045 | 16845 ft | 366 kts | 145° |
| 2026-05-05 08:43 | 49.34402 | 15.09374 | 16770 ft | 359 kts | 145° |
| 2026-05-05 08:43 | 49.32407 | 15.11685 | 16329 ft | 360 kts | 145° |
| 2026-05-05 08:43 | 49.30412 | 15.13992 | 15918 ft | 356 kts | 145° |
| 2026-05-05 08:44 | 49.28443 | 15.16270 | 15451 ft | 354 kts | 145° |
| 2026-05-05 08:44 | 49.26480 | 15.18535 | 15009 ft | 352 kts | 145° |
| 2026-05-05 08:44 | 49.24557 | 15.20753 | 14568 ft | 350 kts | 145° |
| 2026-05-05 08:44 | 49.22620 | 15.22985 | 14119 ft | 348 kts | 145° |
| 2026-05-05 08:45 | 49.20689 | 15.25209 | 13667 ft | 347 kts | 145° |
| 2026-05-05 08:45 | 49.18801 | 15.27385 | 13607 ft | 332 kts | 146° |
| 2026-05-05 08:45 | 49.16964 | 15.29499 | 13569 ft | 329 kts | 146° |
| 2026-05-05 08:45 | 49.15137 | 15.31590 | 13537 ft | 326 kts | 146° |
| 2026-05-05 08:46 | 49.13319 | 15.33671 | 13560 ft | 327 kts | 146° |
| 2026-05-05 08:46 | 49.11494 | 15.35758 | 13574 ft | 327 kts | 146° |
| 2026-05-05 08:46 | 49.09669 | 15.37843 | 13565 ft | 327 kts | 146° |
| 2026-05-05 08:46 | 49.07850 | 15.39922 | 13566 ft | 327 kts | 146° |
| 2026-05-05 08:47 | 49.06028 | 15.42002 | 13557 ft | 327 kts | 146° |
| 2026-05-05 08:47 | 49.04202 | 15.44090 | 13560 ft | 327 kts | 146° |
| 2026-05-05 08:47 | 49.02395 | 15.46210 | 13565 ft | 328 kts | 145° |
| 2026-05-05 08:47 | 49.00624 | 15.48320 | 13568 ft | 328 kts | 145° |
| 2026-05-05 08:48 | 48.98822 | 15.50470 | 13558 ft | 328 kts | 145° |
| 2026-05-05 08:48 | 48.97025 | 15.52613 | 13564 ft | 328 kts | 145° |
| 2026-05-05 08:48 | 48.95227 | 15.54753 | 13555 ft | 328 kts | 145° |
| 2026-05-05 08:48 | 48.93429 | 15.56887 | 13566 ft | 328 kts | 145° |
| 2026-05-05 08:49 | 48.91629 | 15.59022 | 13557 ft | 328 kts | 145° |
| 2026-05-05 08:49 | 48.89836 | 15.61147 | 13456 ft | 325 kts | 145° |
| 2026-05-05 08:49 | 48.88056 | 15.63254 | 13186 ft | 323 kts | 145° |
| 2026-05-05 08:49 | 48.86284 | 15.65347 | 12857 ft | 323 kts | 145° |
| 2026-05-05 08:50 | 48.84510 | 15.67436 | 12538 ft | 320 kts | 146° |
| 2026-05-05 08:50 | 48.82628 | 15.69202 | 12185 ft | 317 kts | 156° |
| 2026-05-05 08:50 | 48.80636 | 15.70612 | 11866 ft | 316 kts | 158° |
| 2026-05-05 08:50 | 48.78668 | 15.71983 | 11604 ft | 314 kts | 158° |
| 2026-05-05 08:51 | 48.76661 | 15.73384 | 11353 ft | 313 kts | 158° |
| 2026-05-05 08:51 | 48.74689 | 15.74772 | 11080 ft | 312 kts | 157° |
| 2026-05-05 08:51 | 48.72722 | 15.76164 | 10810 ft | 311 kts | 158° |
| 2026-05-05 08:51 | 48.70786 | 15.77532 | 10531 ft | 311 kts | 157° |
| 2026-05-05 08:52 | 48.68830 | 15.78916 | 10226 ft | 310 kts | 157° |
| 2026-05-05 08:52 | 48.66874 | 15.80301 | 9980 ft | 309 kts | 157° |
| 2026-05-05 08:52 | 48.64927 | 15.81682 | 9732 ft | 309 kts | 157° |
| 2026-05-05 08:52 | 48.62985 | 15.83060 | 9456 ft | 308 kts | 157° |
| 2026-05-05 08:53 | 48.61046 | 15.84431 | 9201 ft | 307 kts | 157° |
| 2026-05-05 08:53 | 48.59117 | 15.85798 | 8970 ft | 306 kts | 157° |
| 2026-05-05 08:53 | 48.57196 | 15.87165 | 8719 ft | 305 kts | 157° |
| 2026-05-05 08:53 | 48.55280 | 15.88521 | 8469 ft | 304 kts | 157° |
| 2026-05-05 08:54 | 48.53366 | 15.89872 | 8224 ft | 303 kts | 157° |
| 2026-05-05 08:54 | 48.51464 | 15.91218 | 7973 ft | 302 kts | 157° |
| 2026-05-05 08:54 | 48.49561 | 15.92561 | 7752 ft | 301 kts | 156° |
| 2026-05-05 08:54 | 48.47662 | 15.93899 | 7510 ft | 300 kts | 156° |
| 2026-05-05 08:55 | 48.45766 | 15.95160 | 7250 ft | 294 kts | 164° |
| 2026-05-05 08:55 | 48.43755 | 15.95396 | 7020 ft | 290 kts | 190° |
| 2026-05-05 08:55 | 48.41933 | 15.94276 | 6921 ft | 278 kts | 214° |
| 2026-05-05 08:55 | 48.40528 | 15.92365 | 6572 ft | 268 kts | 224° |
| 2026-05-05 08:56 | 48.39250 | 15.90379 | 6228 ft | 259 kts | 217° |
| 2026-05-05 08:56 | 48.37770 | 15.88915 | 6061 ft | 253 kts | 208° |
| 2026-05-05 08:56 | 48.36231 | 15.87831 | 5980 ft | 235 kts | 191° |
| 2026-05-05 08:56 | 48.34672 | 15.87960 | 5964 ft | 225 kts | 159° |
| 2026-05-05 08:57 | 48.33458 | 15.89388 | 5965 ft | 226 kts | 128° |
| 2026-05-05 08:57 | 48.32625 | 15.91440 | 5974 ft | 234 kts | 121° |
| 2026-05-05 08:57 | 48.31868 | 15.93618 | 5977 ft | 237 kts | 120° |
| 2026-05-05 08:57 | 48.31133 | 15.95809 | 5990 ft | 239 kts | 119° |
| 2026-05-05 08:58 | 48.30365 | 15.98059 | 5976 ft | 239 kts | 121° |
| 2026-05-05 08:58 | 48.29570 | 16.00222 | 5980 ft | 240 kts | 121° |
| 2026-05-05 08:58 | 48.28791 | 16.02445 | 5962 ft | 241 kts | 120° |
| 2026-05-05 08:58 | 48.28042 | 16.04687 | 5974 ft | 240 kts | 120° |
| 2026-05-05 08:59 | 48.27308 | 16.06940 | 5967 ft | 240 kts | 119° |
| 2026-05-05 08:59 | 48.26585 | 16.09180 | 5972 ft | 238 kts | 118° |
| 2026-05-05 08:59 | 48.25866 | 16.11407 | 5956 ft | 235 kts | 119° |
| 2026-05-05 08:59 | 48.25159 | 16.13603 | 5970 ft | 231 kts | 119° |
| 2026-05-05 09:00 | 48.24472 | 16.15724 | 5969 ft | 221 kts | 120° |
| 2026-05-05 09:00 | 48.23793 | 16.17789 | 5739 ft | 225 kts | 119° |
| 2026-05-05 09:00 | 48.23110 | 16.19901 | 5527 ft | 229 kts | 119° |
| 2026-05-05 09:00 | 48.22433 | 16.22101 | 5164 ft | 232 kts | 118° |
| 2026-05-05 09:01 | 48.21725 | 16.24258 | 4862 ft | 230 kts | 119° |
| 2026-05-05 09:01 | 48.21002 | 16.26412 | 4532 ft | 235 kts | 119° |
| 2026-05-05 09:01 | 48.20294 | 16.28612 | 4244 ft | 237 kts | 118° |
| 2026-05-05 09:01 | 48.19576 | 16.30854 | 3916 ft | 236 kts | 119° |
| 2026-05-05 09:02 | 48.18872 | 16.33026 | 3569 ft | 227 kts | 119° |
| 2026-05-05 09:02 | 48.18208 | 16.35078 | 3308 ft | 210 kts | 118° |
| 2026-05-05 09:02 | 48.17591 | 16.36984 | 3052 ft | 196 kts | 119° |
| 2026-05-05 09:02 | 48.17014 | 16.38762 | 2778 ft | 185 kts | 120° |
| 2026-05-05 09:03 | 48.16464 | 16.40450 | 2503 ft | 172 kts | 120° |
| 2026-05-05 09:03 | 48.15981 | 16.41953 | 2338 ft | 150 kts | 120° |
| 2026-05-05 09:03 | 48.15550 | 16.43278 | 2113 ft | 139 kts | 120° |
| 2026-05-05 09:03 | 48.15130 | 16.44565 | 1917 ft | 136 kts | 120° |
| 2026-05-05 09:04 | 48.14733 | 16.45790 | 1747 ft | 128 kts | 120° |
| 2026-05-05 09:04 | 48.14337 | 16.47007 | 1592 ft | 134 kts | 121° |
| 2026-05-05 09:04 | 48.13922 | 16.48287 | 1385 ft | 139 kts | 118° |
| 2026-05-05 09:04 | 48.13500 | 16.49587 | 1189 ft | 139 kts | 119° |
| 2026-05-05 09:05 | 48.13077 | 16.50896 | 1002 ft | 139 kts | 117° |
| 2026-05-05 09:05 | 48.12667 | 16.52163 | 793 ft | 133 kts | 118° |
| 2026-05-05 09:05 | 48.12265 | 16.53391 | 660 ft | 128 kts | 119° |
| 2026-05-05 09:05 | 48.11903 | 16.54496 | 627 ft | 98 kts | 116° |
| 2026-05-05 09:06 | 48.11672 | 16.55207 | 630 ft | 57 kts | 116° |
| 2026-05-05 09:06 | 48.11550 | 16.55585 | 626 ft | 29 kts | 115° |
| 2026-05-05 09:06 | 48.11501 | 16.55857 | 619 ft | 26 kts | 95° |
| 2026-05-05 09:06 | 48.11511 | 16.56084 | 620 ft | 17 kts | 69° |
| 2026-05-05 09:07 | 48.11597 | 16.56181 | 627 ft | 13 kts | 28° |
| 2026-05-05 09:07 | 48.11672 | 16.56254 | 630 ft | 13 kts | 30° |
| 2026-05-05 09:07 | 48.11740 | 16.56307 | 626 ft | 6 kts | 27° |
| 2026-05-05 09:07 | 48.11755 | 16.56360 | 627 ft | 6 kts | 91° |
| 2026-05-05 09:08 | 48.11741 | 16.56424 | 630 ft | 8 kts | 116° |
| 2026-05-05 09:08 | 48.11712 | 16.56511 | 626 ft | 7 kts | 111° |
| 2026-05-05 09:08 | 48.11731 | 16.56560 | 630 ft | 6 kts | 42° |
| 2026-05-05 09:08 | 48.11770 | 16.56592 | 625 ft | 6 kts | 26° |
| 2026-05-05 09:09 | 48.11774 | 16.56594 | 624 ft | 0 kts | 26° |